sensor_id;sensor_type;location;lat;lon;timestamp;P1;durP1;ratioP1;P2;durP2;ratioP2
8580;SDS011;4328;48.622;9.230;2024-03-06T00:02:04;17.07;;;12.00;;
8580;SDS011;4328;48.622;9.230;2024-03-06T00:04:31;15.33;;;11.27;;
8580;SDS011;4328;48.622;9.230;2024-03-06T00:06:58;12.83;;;11.43;;
8580;SDS011;4328;48.622;9.230;2024-03-06T00:09:25;14.60;;;10.17;;
8580;SDS011;4328;48.622;9.230;2024-03-06T00:11:52;17.93;;;11.60;;
8580;SDS011;4328;48.622;9.230;2024-03-06T00:14:20;16.80;;;12.13;;
8580;SDS011;4328;48.622;9.230;2024-03-06T00:16:47;12.40;;;10.60;;
8580;SDS011;4328;48.622;9.230;2024-03-06T00:19:15;17.97;;;11.10;;
8580;SDS011;4328;48.622;9.230;2024-03-06T00:21:42;12.30;;;11.00;;
8580;SDS011;4328;48.622;9.230;2024-03-06T00:24:08;17.07;;;13.00;;
8580;SDS011;4328;48.622;9.230;2024-03-06T00:26:39;17.73;;;9.40;;
8580;SDS011;4328;48.622;9.230;2024-03-06T00:29:06;18.60;;;13.27;;
8580;SDS011;4328;48.622;9.230;2024-03-06T00:31:33;15.27;;;11.30;;
8580;SDS011;4328;48.622;9.230;2024-03-06T00:34:00;11.80;;;10.80;;
8580;SDS011;4328;48.622;9.230;2024-03-06T00:36:27;16.80;;;10.37;;
8580;SDS011;4328;48.622;9.230;2024-03-06T00:38:53;12.40;;;10.53;;
8580;SDS011;4328;48.622;9.230;2024-03-06T00:41:20;16.57;;;11.37;;
8580;SDS011;4328;48.622;9.230;2024-03-06T00:43:47;13.63;;;12.23;;
8580;SDS011;4328;48.622;9.230;2024-03-06T00:46:13;34.50;;;31.73;;
8580;SDS011;4328;48.622;9.230;2024-03-06T00:48:41;46.60;;;42.83;;
8580;SDS011;4328;48.622;9.230;2024-03-06T00:51:07;17.67;;;11.17;;
8580;SDS011;4328;48.622;9.230;2024-03-06T00:53:34;11.47;;;10.37;;
8580;SDS011;4328;48.622;9.230;2024-03-06T00:56:01;14.80;;;9.40;;
8580;SDS011;4328;48.622;9.230;2024-03-06T00:58:28;10.73;;;8.53;;
8580;SDS011;4328;48.622;9.230;2024-03-06T01:00:55;20.43;;;9.83;;
8580;SDS011;4328;48.622;9.230;2024-03-06T01:03:23;26.93;;;11.83;;
8580;SDS011;4328;48.622;9.230;2024-03-06T01:05:51;17.17;;;7.50;;
8580;SDS011;4328;48.622;9.230;2024-03-06T01:08:18;18.80;;;9.07;;
8580;SDS011;4328;48.622;9.230;2024-03-06T01:10:45;21.97;;;9.37;;
8580;SDS011;4328;48.622;9.230;2024-03-06T01:13:11;15.83;;;10.53;;
8580;SDS011;4328;48.622;9.230;2024-03-06T01:15:38;17.17;;;9.30;;
8580;SDS011;4328;48.622;9.230;2024-03-06T01:18:04;15.47;;;9.47;;
8580;SDS011;4328;48.622;9.230;2024-03-06T01:20:31;21.67;;;10.50;;
8580;SDS011;4328;48.622;9.230;2024-03-06T01:22:59;12.27;;;8.80;;
8580;SDS011;4328;48.622;9.230;2024-03-06T01:25:26;17.60;;;9.43;;
8580;SDS011;4328;48.622;9.230;2024-03-06T01:27:52;16.43;;;9.23;;
8580;SDS011;4328;48.622;9.230;2024-03-06T01:30:19;12.10;;;9.60;;
8580;SDS011;4328;48.622;9.230;2024-03-06T01:32:45;15.53;;;8.80;;
8580;SDS011;4328;48.622;9.230;2024-03-06T01:35:12;9.37;;;8.40;;
8580;SDS011;4328;48.622;9.230;2024-03-06T01:37:39;14.00;;;9.07;;
8580;SDS011;4328;48.622;9.230;2024-03-06T01:40:07;10.23;;;8.33;;
8580;SDS011;4328;48.622;9.230;2024-03-06T01:42:35;16.10;;;9.93;;
8580;SDS011;4328;48.622;9.230;2024-03-06T01:45:02;16.73;;;9.90;;
8580;SDS011;4328;48.622;9.230;2024-03-06T01:47:29;16.30;;;9.37;;
8580;SDS011;4328;48.622;9.230;2024-03-06T01:49:56;20.50;;;9.27;;
8580;SDS011;4328;48.622;9.230;2024-03-06T01:52:22;15.43;;;9.33;;
8580;SDS011;4328;48.622;9.230;2024-03-06T01:54:50;15.27;;;9.07;;
8580;SDS011;4328;48.622;9.230;2024-03-06T01:57:18;14.07;;;8.50;;
8580;SDS011;4328;48.622;9.230;2024-03-06T01:59:45;16.07;;;8.83;;
8580;SDS011;4328;48.622;9.230;2024-03-06T02:02:13;15.13;;;8.13;;
8580;SDS011;4328;48.622;9.230;2024-03-06T02:04:39;14.30;;;8.00;;
8580;SDS011;4328;48.622;9.230;2024-03-06T02:07:08;13.57;;;6.37;;
8580;SDS011;4328;48.622;9.230;2024-03-06T02:09:36;14.70;;;7.17;;
8580;SDS011;4328;48.622;9.230;2024-03-06T02:12:03;16.33;;;7.53;;
8580;SDS011;4328;48.622;9.230;2024-03-06T02:14:31;14.30;;;8.20;;
8580;SDS011;4328;48.622;9.230;2024-03-06T02:16:58;16.33;;;8.43;;
8580;SDS011;4328;48.622;9.230;2024-03-06T02:19:24;11.63;;;7.13;;
8580;SDS011;4328;48.622;9.230;2024-03-06T02:21:53;15.87;;;7.47;;
8580;SDS011;4328;48.622;9.230;2024-03-06T02:24:19;13.67;;;8.13;;
8580;SDS011;4328;48.622;9.230;2024-03-06T02:26:46;16.40;;;7.33;;
8580;SDS011;4328;48.622;9.230;2024-03-06T02:29:13;11.40;;;8.10;;
8580;SDS011;4328;48.622;9.230;2024-03-06T02:31:40;12.90;;;6.90;;
8580;SDS011;4328;48.622;9.230;2024-03-06T02:34:07;16.23;;;8.90;;
8580;SDS011;4328;48.622;9.230;2024-03-06T02:36:33;16.30;;;8.97;;
8580;SDS011;4328;48.622;9.230;2024-03-06T02:39:02;17.00;;;8.00;;
8580;SDS011;4328;48.622;9.230;2024-03-06T02:41:33;15.83;;;8.53;;
8580;SDS011;4328;48.622;9.230;2024-03-06T02:44:00;15.73;;;10.13;;
8580;SDS011;4328;48.622;9.230;2024-03-06T02:46:27;16.03;;;8.67;;
8580;SDS011;4328;48.622;9.230;2024-03-06T02:48:54;17.80;;;8.70;;
8580;SDS011;4328;48.622;9.230;2024-03-06T02:51:20;14.33;;;7.90;;
8580;SDS011;4328;48.622;9.230;2024-03-06T02:53:47;17.43;;;9.30;;
8580;SDS011;4328;48.622;9.230;2024-03-06T02:56:17;15.27;;;8.20;;
8580;SDS011;4328;48.622;9.230;2024-03-06T02:58:43;15.20;;;8.10;;
8580;SDS011;4328;48.622;9.230;2024-03-06T03:01:10;15.10;;;7.70;;
8580;SDS011;4328;48.622;9.230;2024-03-06T03:03:38;15.17;;;9.03;;
8580;SDS011;4328;48.622;9.230;2024-03-06T03:06:06;15.47;;;8.87;;
8580;SDS011;4328;48.622;9.230;2024-03-06T03:08:33;13.07;;;8.40;;
8580;SDS011;4328;48.622;9.230;2024-03-06T03:11:00;14.57;;;9.13;;
8580;SDS011;4328;48.622;9.230;2024-03-06T03:13:28;42.10;;;14.10;;
8580;SDS011;4328;48.622;9.230;2024-03-06T03:15:55;22.30;;;9.53;;
8580;SDS011;4328;48.622;9.230;2024-03-06T03:18:22;15.57;;;8.67;;
8580;SDS011;4328;48.622;9.230;2024-03-06T03:20:48;18.13;;;10.13;;
8580;SDS011;4328;48.622;9.230;2024-03-06T03:23:15;18.50;;;10.67;;
8580;SDS011;4328;48.622;9.230;2024-03-06T03:25:47;15.20;;;9.13;;
8580;SDS011;4328;48.622;9.230;2024-03-06T03:28:13;9.27;;;7.50;;
8580;SDS011;4328;48.622;9.230;2024-03-06T03:30:43;16.80;;;8.00;;
8580;SDS011;4328;48.622;9.230;2024-03-06T03:33:10;11.17;;;6.70;;
8580;SDS011;4328;48.622;9.230;2024-03-06T03:35:37;14.93;;;7.37;;
8580;SDS011;4328;48.622;9.230;2024-03-06T03:38:04;16.27;;;9.00;;
8580;SDS011;4328;48.622;9.230;2024-03-06T03:40:31;20.10;;;8.57;;
8580;SDS011;4328;48.622;9.230;2024-03-06T03:42:58;18.80;;;9.73;;
8580;SDS011;4328;48.622;9.230;2024-03-06T03:45:31;15.57;;;8.30;;
8580;SDS011;4328;48.622;9.230;2024-03-06T03:47:59;19.30;;;9.40;;
8580;SDS011;4328;48.622;9.230;2024-03-06T03:50:27;16.93;;;8.77;;
8580;SDS011;4328;48.622;9.230;2024-03-06T03:52:54;19.53;;;9.37;;
8580;SDS011;4328;48.622;9.230;2024-03-06T03:55:22;19.87;;;10.57;;
8580;SDS011;4328;48.622;9.230;2024-03-06T03:57:49;15.27;;;8.93;;
8580;SDS011;4328;48.622;9.230;2024-03-06T04:00:16;11.03;;;7.80;;
8580;SDS011;4328;48.622;9.230;2024-03-06T04:02:43;14.23;;;9.23;;
8580;SDS011;4328;48.622;9.230;2024-03-06T04:05:11;15.60;;;9.77;;
8580;SDS011;4328;48.622;9.230;2024-03-06T04:07:38;15.73;;;10.10;;
8580;SDS011;4328;48.622;9.230;2024-03-06T04:10:05;22.20;;;11.63;;
8580;SDS011;4328;48.622;9.230;2024-03-06T04:12:35;17.30;;;10.80;;
8580;SDS011;4328;48.622;9.230;2024-03-06T04:15:01;19.97;;;10.90;;
8580;SDS011;4328;48.622;9.230;2024-03-06T04:17:29;13.77;;;9.10;;
8580;SDS011;4328;48.622;9.230;2024-03-06T04:19:55;22.03;;;9.93;;
8580;SDS011;4328;48.622;9.230;2024-03-06T04:22:23;14.60;;;8.90;;
8580;SDS011;4328;48.622;9.230;2024-03-06T04:24:50;14.50;;;7.97;;
8580;SDS011;4328;48.622;9.230;2024-03-06T04:27:16;12.27;;;10.57;;
8580;SDS011;4328;48.622;9.230;2024-03-06T04:29:43;16.40;;;10.70;;
8580;SDS011;4328;48.622;9.230;2024-03-06T04:32:09;16.17;;;6.33;;
8580;SDS011;4328;48.622;9.230;2024-03-06T04:34:36;16.60;;;6.70;;
8580;SDS011;4328;48.622;9.230;2024-03-06T04:37:03;17.17;;;6.23;;
8580;SDS011;4328;48.622;9.230;2024-03-06T04:39:33;12.07;;;8.23;;
8580;SDS011;4328;48.622;9.230;2024-03-06T04:41:59;18.37;;;9.43;;
8580;SDS011;4328;48.622;9.230;2024-03-06T04:44:26;13.30;;;8.90;;
8580;SDS011;4328;48.622;9.230;2024-03-06T04:46:53;16.27;;;11.63;;
8580;SDS011;4328;48.622;9.230;2024-03-06T04:49:20;15.77;;;11.67;;
8580;SDS011;4328;48.622;9.230;2024-03-06T04:51:47;19.20;;;13.17;;
8580;SDS011;4328;48.622;9.230;2024-03-06T04:54:13;17.27;;;11.87;;
8580;SDS011;4328;48.622;9.230;2024-03-06T04:56:41;21.67;;;13.67;;
8580;SDS011;4328;48.622;9.230;2024-03-06T04:59:08;14.97;;;12.37;;
8580;SDS011;4328;48.622;9.230;2024-03-06T05:01:34;14.10;;;10.80;;
8580;SDS011;4328;48.622;9.230;2024-03-06T05:04:01;16.80;;;12.53;;
8580;SDS011;4328;48.622;9.230;2024-03-06T05:06:29;15.07;;;10.33;;
8580;SDS011;4328;48.622;9.230;2024-03-06T05:08:55;17.10;;;11.10;;
8580;SDS011;4328;48.622;9.230;2024-03-06T05:11:22;18.40;;;11.87;;
8580;SDS011;4328;48.622;9.230;2024-03-06T05:13:49;15.73;;;12.20;;
8580;SDS011;4328;48.622;9.230;2024-03-06T05:16:16;20.37;;;11.50;;
8580;SDS011;4328;48.622;9.230;2024-03-06T05:18:43;14.93;;;8.97;;
8580;SDS011;4328;48.622;9.230;2024-03-06T05:21:10;19.53;;;10.07;;
8580;SDS011;4328;48.622;9.230;2024-03-06T05:23:36;14.67;;;9.40;;
8580;SDS011;4328;48.622;9.230;2024-03-06T05:26:03;15.17;;;9.97;;
8580;SDS011;4328;48.622;9.230;2024-03-06T05:28:30;17.70;;;11.77;;
8580;SDS011;4328;48.622;9.230;2024-03-06T05:30:58;16.63;;;8.60;;
8580;SDS011;4328;48.622;9.230;2024-03-06T05:33:25;39.77;;;15.57;;
8580;SDS011;4328;48.622;9.230;2024-03-06T05:35:53;18.93;;;10.63;;
8580;SDS011;4328;48.622;9.230;2024-03-06T05:38:20;13.77;;;11.30;;
8580;SDS011;4328;48.622;9.230;2024-03-06T05:40:47;17.07;;;10.70;;
8580;SDS011;4328;48.622;9.230;2024-03-06T05:43:14;19.90;;;11.47;;
8580;SDS011;4328;48.622;9.230;2024-03-06T05:45:40;19.13;;;12.03;;
8580;SDS011;4328;48.622;9.230;2024-03-06T05:48:08;17.00;;;11.80;;
8580;SDS011;4328;48.622;9.230;2024-03-06T05:50:35;22.57;;;13.13;;
8580;SDS011;4328;48.622;9.230;2024-03-06T05:53:01;18.60;;;12.33;;
8580;SDS011;4328;48.622;9.230;2024-03-06T05:55:28;18.13;;;11.70;;
8580;SDS011;4328;48.622;9.230;2024-03-06T05:57:54;14.37;;;10.93;;
8580;SDS011;4328;48.622;9.230;2024-03-06T06:00:21;41.97;;;17.80;;
8580;SDS011;4328;48.622;9.230;2024-03-06T06:02:48;16.10;;;11.73;;
8580;SDS011;4328;48.622;9.230;2024-03-06T06:05:16;19.97;;;12.30;;
8580;SDS011;4328;48.622;9.230;2024-03-06T06:07:44;19.70;;;12.67;;
8580;SDS011;4328;48.622;9.230;2024-03-06T06:10:11;25.30;;;11.87;;
8580;SDS011;4328;48.622;9.230;2024-03-06T06:12:38;14.40;;;10.10;;
8580;SDS011;4328;48.622;9.230;2024-03-06T06:15:06;25.07;;;11.70;;
8580;SDS011;4328;48.622;9.230;2024-03-06T06:17:33;23.17;;;12.27;;
8580;SDS011;4328;48.622;9.230;2024-03-06T06:20:00;22.37;;;12.20;;
8580;SDS011;4328;48.622;9.230;2024-03-06T06:22:28;18.60;;;13.30;;
8580;SDS011;4328;48.622;9.230;2024-03-06T06:24:54;19.67;;;9.67;;
8580;SDS011;4328;48.622;9.230;2024-03-06T06:27:21;18.57;;;10.97;;
8580;SDS011;4328;48.622;9.230;2024-03-06T06:29:50;21.83;;;12.97;;
8580;SDS011;4328;48.622;9.230;2024-03-06T06:32:18;29.57;;;12.90;;
8580;SDS011;4328;48.622;9.230;2024-03-06T06:34:44;20.33;;;13.10;;
8580;SDS011;4328;48.622;9.230;2024-03-06T06:37:12;23.13;;;13.47;;
8580;SDS011;4328;48.622;9.230;2024-03-06T06:39:41;22.70;;;13.83;;
8580;SDS011;4328;48.622;9.230;2024-03-06T06:42:07;17.10;;;13.87;;
8580;SDS011;4328;48.622;9.230;2024-03-06T06:44:35;17.93;;;12.97;;
8580;SDS011;4328;48.622;9.230;2024-03-06T06:47:02;19.57;;;12.47;;
8580;SDS011;4328;48.622;9.230;2024-03-06T06:49:29;12.60;;;11.30;;
8580;SDS011;4328;48.622;9.230;2024-03-06T06:51:55;18.80;;;12.77;;
8580;SDS011;4328;48.622;9.230;2024-03-06T06:54:22;27.43;;;14.53;;
8580;SDS011;4328;48.622;9.230;2024-03-06T06:56:50;20.83;;;11.03;;
8580;SDS011;4328;48.622;9.230;2024-03-06T06:59:16;13.70;;;8.00;;
8580;SDS011;4328;48.622;9.230;2024-03-06T07:01:45;21.07;;;13.77;;
8580;SDS011;4328;48.622;9.230;2024-03-06T07:04:11;33.73;;;15.33;;
8580;SDS011;4328;48.622;9.230;2024-03-06T07:06:38;20.40;;;13.60;;
8580;SDS011;4328;48.622;9.230;2024-03-06T07:09:05;21.70;;;15.50;;
8580;SDS011;4328;48.622;9.230;2024-03-06T07:11:34;20.60;;;14.17;;
8580;SDS011;4328;48.622;9.230;2024-03-06T07:14:02;28.97;;;19.43;;
8580;SDS011;4328;48.622;9.230;2024-03-06T07:16:28;21.60;;;14.63;;
8580;SDS011;4328;48.622;9.230;2024-03-06T07:18:55;17.23;;;12.23;;
8580;SDS011;4328;48.622;9.230;2024-03-06T07:21:21;24.23;;;16.40;;
8580;SDS011;4328;48.622;9.230;2024-03-06T07:23:48;17.17;;;12.63;;
8580;SDS011;4328;48.622;9.230;2024-03-06T07:26:15;21.67;;;14.57;;
8580;SDS011;4328;48.622;9.230;2024-03-06T07:28:41;26.17;;;16.13;;
8580;SDS011;4328;48.622;9.230;2024-03-06T07:31:09;21.13;;;14.67;;
8580;SDS011;4328;48.622;9.230;2024-03-06T07:33:36;26.63;;;16.10;;
8580;SDS011;4328;48.622;9.230;2024-03-06T07:36:03;26.37;;;18.53;;
8580;SDS011;4328;48.622;9.230;2024-03-06T07:38:31;20.87;;;13.73;;
8580;SDS011;4328;48.622;9.230;2024-03-06T07:40:57;23.30;;;17.20;;
8580;SDS011;4328;48.622;9.230;2024-03-06T07:43:24;46.77;;;20.37;;
8580;SDS011;4328;48.622;9.230;2024-03-06T07:45:51;17.37;;;14.10;;
8580;SDS011;4328;48.622;9.230;2024-03-06T07:48:19;25.30;;;17.27;;
8580;SDS011;4328;48.622;9.230;2024-03-06T07:50:46;25.50;;;20.00;;
8580;SDS011;4328;48.622;9.230;2024-03-06T07:53:13;26.53;;;15.10;;
8580;SDS011;4328;48.622;9.230;2024-03-06T07:55:39;26.23;;;18.60;;
8580;SDS011;4328;48.622;9.230;2024-03-06T07:58:09;21.97;;;17.07;;
8580;SDS011;4328;48.622;9.230;2024-03-06T08:00:38;27.37;;;22.37;;
8580;SDS011;4328;48.622;9.230;2024-03-06T08:03:04;40.70;;;36.97;;
8580;SDS011;4328;48.622;9.230;2024-03-06T08:05:32;21.13;;;15.90;;
8580;SDS011;4328;48.622;9.230;2024-03-06T08:07:59;27.63;;;24.03;;
8580;SDS011;4328;48.622;9.230;2024-03-06T08:10:28;40.37;;;37.03;;
8580;SDS011;4328;48.622;9.230;2024-03-06T08:12:56;50.43;;;46.93;;
8580;SDS011;4328;48.622;9.230;2024-03-06T08:15:23;32.17;;;29.03;;
8580;SDS011;4328;48.622;9.230;2024-03-06T08:17:49;51.60;;;47.57;;
8580;SDS011;4328;48.622;9.230;2024-03-06T08:20:17;23.80;;;11.57;;
8580;SDS011;4328;48.622;9.230;2024-03-06T08:22:45;17.70;;;12.20;;
8580;SDS011;4328;48.622;9.230;2024-03-06T08:25:12;24.03;;;14.73;;
8580;SDS011;4328;48.622;9.230;2024-03-06T08:27:39;18.43;;;12.60;;
8580;SDS011;4328;48.622;9.230;2024-03-06T08:30:07;24.37;;;14.33;;
8580;SDS011;4328;48.622;9.230;2024-03-06T08:32:35;18.07;;;14.50;;
8580;SDS011;4328;48.622;9.230;2024-03-06T08:35:02;18.37;;;13.73;;
8580;SDS011;4328;48.622;9.230;2024-03-06T08:37:30;18.57;;;14.77;;
8580;SDS011;4328;48.622;9.230;2024-03-06T08:39:59;18.53;;;15.20;;
8580;SDS011;4328;48.622;9.230;2024-03-06T08:42:26;23.40;;;14.33;;
8580;SDS011;4328;48.622;9.230;2024-03-06T08:44:53;22.23;;;14.93;;
8580;SDS011;4328;48.622;9.230;2024-03-06T08:47:20;26.40;;;15.30;;
8580;SDS011;4328;48.622;9.230;2024-03-06T08:49:46;22.20;;;16.67;;
8580;SDS011;4328;48.622;9.230;2024-03-06T08:52:13;17.27;;;14.57;;
8580;SDS011;4328;48.622;9.230;2024-03-06T08:54:40;15.10;;;13.87;;
8580;SDS011;4328;48.622;9.230;2024-03-06T08:57:09;20.23;;;16.87;;
8580;SDS011;4328;48.622;9.230;2024-03-06T08:59:36;21.63;;;18.03;;
8580;SDS011;4328;48.622;9.230;2024-03-06T09:02:11;20.93;;;16.63;;
8580;SDS011;4328;48.622;9.230;2024-03-06T09:04:39;21.80;;;18.20;;
8580;SDS011;4328;48.622;9.230;2024-03-06T09:07:06;29.27;;;21.20;;
8580;SDS011;4328;48.622;9.230;2024-03-06T09:09:33;23.47;;;19.73;;
8580;SDS011;4328;48.622;9.230;2024-03-06T09:12:00;25.10;;;20.17;;
8580;SDS011;4328;48.622;9.230;2024-03-06T09:14:28;26.73;;;19.33;;
8580;SDS011;4328;48.622;9.230;2024-03-06T09:16:54;23.43;;;19.43;;
8580;SDS011;4328;48.622;9.230;2024-03-06T09:19:21;25.23;;;16.73;;
8580;SDS011;4328;48.622;9.230;2024-03-06T09:21:48;18.63;;;16.00;;
8580;SDS011;4328;48.622;9.230;2024-03-06T09:24:14;17.50;;;14.40;;
8580;SDS011;4328;48.622;9.230;2024-03-06T09:26:41;19.13;;;15.97;;
8580;SDS011;4328;48.622;9.230;2024-03-06T09:29:07;20.80;;;18.57;;
8580;SDS011;4328;48.622;9.230;2024-03-06T09:31:36;19.80;;;16.07;;
8580;SDS011;4328;48.622;9.230;2024-03-06T09:34:03;21.70;;;17.70;;
8580;SDS011;4328;48.622;9.230;2024-03-06T09:36:29;26.10;;;21.20;;
8580;SDS011;4328;48.622;9.230;2024-03-06T09:38:58;19.00;;;17.33;;
8580;SDS011;4328;48.622;9.230;2024-03-06T09:41:24;25.27;;;19.67;;
8580;SDS011;4328;48.622;9.230;2024-03-06T09:43:51;18.63;;;16.70;;
8580;SDS011;4328;48.622;9.230;2024-03-06T09:46:18;21.10;;;18.63;;
8580;SDS011;4328;48.622;9.230;2024-03-06T09:48:46;21.57;;;18.70;;
8580;SDS011;4328;48.622;9.230;2024-03-06T09:51:13;20.43;;;17.90;;
8580;SDS011;4328;48.622;9.230;2024-03-06T09:53:40;22.13;;;18.70;;
8580;SDS011;4328;48.622;9.230;2024-03-06T09:56:08;25.00;;;19.73;;
8580;SDS011;4328;48.622;9.230;2024-03-06T09:58:35;24.33;;;16.20;;
8580;SDS011;4328;48.622;9.230;2024-03-06T10:01:02;21.40;;;16.77;;
8580;SDS011;4328;48.622;9.230;2024-03-06T10:03:32;47.00;;;22.00;;
8580;SDS011;4328;48.622;9.230;2024-03-06T10:06:00;19.43;;;16.50;;
8580;SDS011;4328;48.622;9.230;2024-03-06T10:08:26;24.10;;;16.70;;
8580;SDS011;4328;48.622;9.230;2024-03-06T10:10:53;18.77;;;16.77;;
8580;SDS011;4328;48.622;9.230;2024-03-06T10:13:22;29.03;;;17.63;;
8580;SDS011;4328;48.622;9.230;2024-03-06T10:15:55;22.50;;;16.97;;
8580;SDS011;4328;48.622;9.230;2024-03-06T10:18:23;24.57;;;16.40;;
8580;SDS011;4328;48.622;9.230;2024-03-06T10:20:53;21.13;;;14.50;;
8580;SDS011;4328;48.622;9.230;2024-03-06T10:23:21;31.03;;;18.03;;
8580;SDS011;4328;48.622;9.230;2024-03-06T10:25:49;21.53;;;15.70;;
8580;SDS011;4328;48.622;9.230;2024-03-06T10:28:17;19.27;;;17.37;;
8580;SDS011;4328;48.622;9.230;2024-03-06T10:30:45;23.43;;;15.60;;
8580;SDS011;4328;48.622;9.230;2024-03-06T10:33:12;19.27;;;16.73;;
8580;SDS011;4328;48.622;9.230;2024-03-06T10:35:39;22.50;;;17.37;;
8580;SDS011;4328;48.622;9.230;2024-03-06T10:38:07;21.70;;;19.57;;
8580;SDS011;4328;48.622;9.230;2024-03-06T10:40:37;22.97;;;17.10;;
8580;SDS011;4328;48.622;9.230;2024-03-06T10:43:05;25.13;;;20.77;;
8580;SDS011;4328;48.622;9.230;2024-03-06T10:45:38;23.13;;;17.50;;
8580;SDS011;4328;48.622;9.230;2024-03-06T10:48:07;20.60;;;17.40;;
8580;SDS011;4328;48.622;9.230;2024-03-06T10:50:36;20.17;;;17.67;;
8580;SDS011;4328;48.622;9.230;2024-03-06T10:53:05;22.53;;;18.43;;
8580;SDS011;4328;48.622;9.230;2024-03-06T10:55:36;22.27;;;18.07;;
8580;SDS011;4328;48.622;9.230;2024-03-06T10:58:04;21.20;;;19.10;;
8580;SDS011;4328;48.622;9.230;2024-03-06T11:00:33;28.47;;;19.30;;
8580;SDS011;4328;48.622;9.230;2024-03-06T11:03:02;23.50;;;18.30;;
8580;SDS011;4328;48.622;9.230;2024-03-06T11:05:33;23.73;;;21.13;;
8580;SDS011;4328;48.622;9.230;2024-03-06T11:08:00;23.73;;;19.50;;
8580;SDS011;4328;48.622;9.230;2024-03-06T11:10:31;26.83;;;20.33;;
8580;SDS011;4328;48.622;9.230;2024-03-06T11:12:59;23.33;;;19.33;;
8580;SDS011;4328;48.622;9.230;2024-03-06T11:15:28;27.93;;;20.33;;
8580;SDS011;4328;48.622;9.230;2024-03-06T11:17:54;27.03;;;20.83;;
8580;SDS011;4328;48.622;9.230;2024-03-06T11:20:21;22.40;;;20.10;;
8580;SDS011;4328;48.622;9.230;2024-03-06T11:23:02;24.23;;;21.30;;
8580;SDS011;4328;48.622;9.230;2024-03-06T11:28:29;25.47;;;22.77;;
8580;SDS011;4328;48.622;9.230;2024-03-06T11:30:57;26.37;;;23.90;;
8580;SDS011;4328;48.622;9.230;2024-03-06T11:33:34;46.40;;;29.47;;
8580;SDS011;4328;48.622;9.230;2024-03-06T11:36:15;32.53;;;29.53;;
8580;SDS011;4328;48.622;9.230;2024-03-06T11:38:47;49.93;;;45.27;;
8580;SDS011;4328;48.622;9.230;2024-03-06T11:41:14;47.67;;;44.10;;
8580;SDS011;4328;48.622;9.230;2024-03-06T11:43:45;27.90;;;20.00;;
8580;SDS011;4328;48.622;9.230;2024-03-06T11:46:15;27.00;;;22.07;;
8580;SDS011;4328;48.622;9.230;2024-03-06T11:48:42;28.30;;;23.40;;
8580;SDS011;4328;48.622;9.230;2024-03-06T11:51:10;29.70;;;20.07;;
8580;SDS011;4328;48.622;9.230;2024-03-06T11:53:36;49.73;;;26.13;;
8580;SDS011;4328;48.622;9.230;2024-03-06T11:56:05;26.67;;;20.60;;
8580;SDS011;4328;48.622;9.230;2024-03-06T11:58:33;33.90;;;23.93;;
8580;SDS011;4328;48.622;9.230;2024-03-06T12:01:01;28.93;;;20.90;;
8580;SDS011;4328;48.622;9.230;2024-03-06T12:03:30;46.13;;;23.80;;
8580;SDS011;4328;48.622;9.230;2024-03-06T12:05:57;25.60;;;20.03;;
8580;SDS011;4328;48.622;9.230;2024-03-06T12:08:24;31.80;;;20.30;;
8580;SDS011;4328;48.622;9.230;2024-03-06T12:10:50;25.40;;;17.30;;
8580;SDS011;4328;48.622;9.230;2024-03-06T12:13:20;21.80;;;19.60;;
8580;SDS011;4328;48.622;9.230;2024-03-06T12:15:47;24.97;;;18.83;;
8580;SDS011;4328;48.622;9.230;2024-03-06T12:18:16;28.33;;;20.13;;
8580;SDS011;4328;48.622;9.230;2024-03-06T12:20:43;33.23;;;29.30;;
8580;SDS011;4328;48.622;9.230;2024-03-06T12:23:18;24.67;;;20.23;;
8580;SDS011;4328;48.622;9.230;2024-03-06T12:25:46;28.73;;;21.50;;
8580;SDS011;4328;48.622;9.230;2024-03-06T12:28:12;23.43;;;20.47;;
8580;SDS011;4328;48.622;9.230;2024-03-06T12:30:40;34.93;;;20.87;;
8580;SDS011;4328;48.622;9.230;2024-03-06T12:33:09;26.53;;;23.83;;
8580;SDS011;4328;48.622;9.230;2024-03-06T12:35:41;30.90;;;27.47;;
8580;SDS011;4328;48.622;9.230;2024-03-06T12:38:13;30.83;;;27.97;;
8580;SDS011;4328;48.622;9.230;2024-03-06T12:40:41;32.00;;;27.03;;
8580;SDS011;4328;48.622;9.230;2024-03-06T12:43:07;31.73;;;29.07;;
8580;SDS011;4328;48.622;9.230;2024-03-06T12:45:34;33.77;;;30.27;;
8580;SDS011;4328;48.622;9.230;2024-03-06T12:48:00;34.53;;;30.33;;
8580;SDS011;4328;48.622;9.230;2024-03-06T12:50:29;26.90;;;24.03;;
8580;SDS011;4328;48.622;9.230;2024-03-06T12:52:57;28.33;;;24.23;;
8580;SDS011;4328;48.622;9.230;2024-03-06T12:55:24;28.07;;;25.07;;
8580;SDS011;4328;48.622;9.230;2024-03-06T12:57:51;28.60;;;25.67;;
8580;SDS011;4328;48.622;9.230;2024-03-06T13:00:18;30.90;;;27.70;;
8580;SDS011;4328;48.622;9.230;2024-03-06T13:02:45;24.80;;;22.47;;
8580;SDS011;4328;48.622;9.230;2024-03-06T13:05:12;26.00;;;23.03;;
8580;SDS011;4328;48.622;9.230;2024-03-06T13:07:39;33.23;;;26.23;;
8580;SDS011;4328;48.622;9.230;2024-03-06T13:10:09;36.13;;;29.73;;
8580;SDS011;4328;48.622;9.230;2024-03-06T13:12:36;32.37;;;29.00;;
8580;SDS011;4328;48.622;9.230;2024-03-06T13:15:03;35.47;;;29.10;;
8580;SDS011;4328;48.622;9.230;2024-03-06T13:17:32;26.77;;;23.97;;
8580;SDS011;4328;48.622;9.230;2024-03-06T13:19:59;33.70;;;27.20;;
8580;SDS011;4328;48.622;9.230;2024-03-06T13:22:25;31.23;;;28.13;;
8580;SDS011;4328;48.622;9.230;2024-03-06T13:24:51;43.17;;;38.83;;
8580;SDS011;4328;48.622;9.230;2024-03-06T13:27:19;29.77;;;26.50;;
8580;SDS011;4328;48.622;9.230;2024-03-06T13:29:45;37.83;;;33.70;;
8580;SDS011;4328;48.622;9.230;2024-03-06T13:32:12;33.57;;;28.57;;
8580;SDS011;4328;48.622;9.230;2024-03-06T13:34:38;34.13;;;30.47;;
8580;SDS011;4328;48.622;9.230;2024-03-06T13:37:05;37.83;;;31.83;;
8580;SDS011;4328;48.622;9.230;2024-03-06T13:39:35;33.13;;;29.93;;
8580;SDS011;4328;48.622;9.230;2024-03-06T13:42:01;37.63;;;33.90;;
8580;SDS011;4328;48.622;9.230;2024-03-06T13:44:29;30.93;;;28.37;;
8580;SDS011;4328;48.622;9.230;2024-03-06T13:46:56;32.20;;;28.80;;
8580;SDS011;4328;48.622;9.230;2024-03-06T13:49:34;33.73;;;30.33;;
8580;SDS011;4328;48.622;9.230;2024-03-06T13:52:01;36.13;;;32.67;;
8580;SDS011;4328;48.622;9.230;2024-03-06T13:54:30;31.50;;;28.20;;
8580;SDS011;4328;48.622;9.230;2024-03-06T13:56:56;32.93;;;29.63;;
8580;SDS011;4328;48.622;9.230;2024-03-06T13:59:26;35.67;;;32.10;;
8580;SDS011;4328;48.622;9.230;2024-03-06T14:01:55;37.70;;;33.70;;
8580;SDS011;4328;48.622;9.230;2024-03-06T14:04:22;38.70;;;35.10;;
8580;SDS011;4328;48.622;9.230;2024-03-06T14:06:49;39.37;;;35.47;;
8580;SDS011;4328;48.622;9.230;2024-03-06T14:09:16;41.00;;;37.03;;
8580;SDS011;4328;48.622;9.230;2024-03-06T14:11:43;46.13;;;42.07;;
8580;SDS011;4328;48.622;9.230;2024-03-06T14:14:10;46.77;;;42.67;;
8580;SDS011;4328;48.622;9.230;2024-03-06T14:16:38;50.37;;;46.20;;
8580;SDS011;4328;48.622;9.230;2024-03-06T14:19:07;50.23;;;46.37;;
8580;SDS011;4328;48.622;9.230;2024-03-06T14:21:34;51.07;;;47.03;;
8580;SDS011;4328;48.622;9.230;2024-03-06T14:24:01;54.73;;;50.10;;
8580;SDS011;4328;48.622;9.230;2024-03-06T14:26:28;51.50;;;47.23;;
8580;SDS011;4328;48.622;9.230;2024-03-06T14:28:55;46.50;;;42.20;;
8580;SDS011;4328;48.622;9.230;2024-03-06T14:31:21;47.37;;;43.27;;
8580;SDS011;4328;48.622;9.230;2024-03-06T14:33:48;49.97;;;44.47;;
8580;SDS011;4328;48.622;9.230;2024-03-06T14:36:16;45.40;;;41.03;;
8580;SDS011;4328;48.622;9.230;2024-03-06T14:38:43;49.20;;;44.50;;
8580;SDS011;4328;48.622;9.230;2024-03-06T14:41:11;49.97;;;45.10;;
8580;SDS011;4328;48.622;9.230;2024-03-06T14:43:38;54.70;;;45.33;;
8580;SDS011;4328;48.622;9.230;2024-03-06T14:46:04;47.50;;;43.37;;
8580;SDS011;4328;48.622;9.230;2024-03-06T14:48:31;43.67;;;39.63;;
8580;SDS011;4328;48.622;9.230;2024-03-06T14:50:59;44.00;;;39.57;;
8580;SDS011;4328;48.622;9.230;2024-03-06T14:53:27;52.57;;;42.97;;
8580;SDS011;4328;48.622;9.230;2024-03-06T14:55:54;47.50;;;42.87;;